Time;durP1;ratioP1;P1;durP2;ratioP2;P2;SDS_P1;SDS_P2;PMS_P1;PMS_P2;Temp;Humidity;BMP_temperature;BMP_pressure;BME280_temperature;BME280_humidity;BME280_pressure;Samples;Min_cycle;Max_cycle;Signal;HPM_P1;HPM_P2
2022/09/16 00:01:27;;;;;;;;;;;18.10;93.90;;;;;;5116512;28;19969;-69
2022/09/16 00:03:54;;;;;;;;;;;18.10;93.90;;;;;;5116495;28;20255;-70
2022/09/16 00:06:26;;;;;;;;;;;18.10;93.90;;;;;;5116505;28;19903;-69
2022/09/16 00:08:57;;;;;;;;;;;18.10;93.90;;;;;;5116476;28;20061;-70
2022/09/16 00:11:23;;;;;;;;;;;18.10;93.90;;;;;;5128361;27;19908;-69
2022/09/16 00:13:49;;;;;;;;;;;18.10;93.80;;;;;;5136817;27;19911;-69
2022/09/16 00:16:17;;;;;;;;;;;18.10;93.80;;;;;;5136913;27;19907;-69
2022/09/16 00:18:43;;;;;;;;;;;18.00;93.80;;;;;;5136835;27;19903;-70
2022/09/16 00:21:09;;;;;;;;;;;18.00;93.80;;;;;;5128452;27;20351;-69
2022/09/16 00:23:35;;;;;;;;;;;18.00;93.80;;;;;;5116136;28;20282;-70
2022/09/16 00:26:00;;;;;;;;;;;18.00;93.80;;;;;;5116035;28;19911;-69
2022/09/16 00:28:26;;;;;;;;;;;17.90;93.70;;;;;;5116103;28;19903;-70
2022/09/16 00:30:51;;;;;;;;;;;17.90;93.70;;;;;;5115900;28;20378;-69
2022/09/16 00:33:17;;;;;;;;;;;17.80;93.70;;;;;;5116259;27;19926;-69
2022/09/16 00:35:43;;;;;;;;;;;17.80;93.70;;;;;;5115194;27;19914;-69
2022/09/16 00:38:09;;;;;;;;;;;17.80;93.60;;;;;;5115790;28;20006;-69
2022/09/16 00:40:42;;;;;;;;;;;17.70;93.60;;;;;;5115873;28;19908;-70
2022/09/16 00:43:09;;;;;;;;;;;17.70;93.60;;;;;;5115797;28;19943;-70
2022/09/16 00:45:35;;;;;;;;;;;17.60;93.60;;;;;;5097380;28;19910;-69
2022/09/16 00:48:01;;;;;;;;;;;17.60;93.60;;;;;;5115602;28;19982;-69
2022/09/16 00:50:27;;;;;;;;;;;17.50;93.60;;;;;;5115251;27;19904;-70
2022/09/16 00:52:53;;;;;;;;;;;17.50;93.60;;;;;;5130083;27;19957;-69
2022/09/16 00:55:22;;;;;;;;;;;17.50;93.60;;;;;;5136001;27;19913;-69
2022/09/16 00:57:48;;;;;;;;;;;17.40;93.60;;;;;;5105967;28;19972;-69
2022/09/16 01:00:14;;;;;;;;;;;17.40;93.60;;;;;;5115360;28;19904;-69
2022/09/16 01:02:41;;;;;;;;;;;17.40;93.60;;;;;;5115445;28;19910;-70
2022/09/16 01:05:11;;;;;;;;;;;17.30;93.60;;;;;;5115340;28;19910;-70
2022/09/16 01:07:39;;;;;;;;;;;17.30;93.60;;;;;;5115840;28;19939;-69
2022/09/16 01:10:05;;;;;;;;;;;17.30;93.70;;;;;;5115179;28;19911;-69
2022/09/16 01:12:32;;;;;;;;;;;17.20;93.70;;;;;;5115137;28;19908;-69
2022/09/16 01:14:58;;;;;;;;;;;17.20;93.70;;;;;;5115118;28;20393;-69
2022/09/16 01:17:27;;;;;;;;;;;17.20;93.70;;;;;;5115079;28;19909;-69
2022/09/16 01:19:52;;;;;;;;;;;17.20;93.70;;;;;;5096757;28;20255;-69
2022/09/16 01:22:18;;;;;;;;;;;17.10;93.70;;;;;;5114814;28;19915;-69
2022/09/16 01:24:49;;;;;;;;;;;17.10;93.70;;;;;;5114985;28;19958;-69
2022/09/16 01:27:33;;;;;;;;;;;17.10;93.70;;;;;;5114832;28;19952;-69
2022/09/16 01:30:12;;;;;;;;;;;17.00;93.70;;;;;;5114823;28;19915;-69
2022/09/16 01:32:46;;;;;;;;;;;17.00;93.70;;;;;;5114406;28;19915;-70
2022/09/16 01:35:12;;;;;;;;;;;17.00;93.70;;;;;;5114799;28;19904;-69
2022/09/16 01:37:59;;;;;;;;;;;17.00;93.70;;;;;;5096348;28;19998;-70
2022/09/16 01:40:33;;;;;;;;;;;17.00;93.70;;;;;;5114753;28;19904;-69
2022/09/16 01:43:03;;;;;;;;;;;16.90;93.80;;;;;;5114531;28;20438;-69
2022/09/16 01:45:48;;;;;;;;;;;16.90;93.80;;;;;;5114370;28;19914;-69
2022/09/16 01:48:32;;;;;;;;;;;16.90;93.80;;;;;;5113502;28;20003;-69
2022/09/16 01:50:57;;;;;;;;;;;16.90;93.80;;;;;;5114212;28;19926;-69
2022/09/16 01:53:26;;;;;;;;;;;16.90;93.80;;;;;;5114447;28;19952;-69
2022/09/16 01:55:56;;;;;;;;;;;16.90;93.90;;;;;;5114158;28;19904;-69
2022/09/16 01:58:24;;;;;;;;;;;16.90;93.80;;;;;;5114205;28;19949;-69
2022/09/16 02:00:52;;;;;;;;;;;16.80;93.80;;;;;;5114107;28;19904;-69
2022/09/16 02:03:21;;;;;;;;;;;16.80;93.80;;;;;;5114205;28;19942;-70
2022/09/16 02:05:54;;;;;;;;;;;16.80;93.80;;;;;;5114144;28;19949;-70
2022/09/16 02:08:23;;;;;;;;;;;16.80;93.80;;;;;;5114058;28;19918;-70
2022/09/16 02:10:51;;;;;;;;;;;16.80;93.80;;;;;;5114037;28;19998;-69
2022/09/16 02:13:22;;;;;;;;;;;16.80;93.80;;;;;;5114047;28;20369;-69
2022/09/16 02:15:50;;;;;;;;;;;16.70;93.70;;;;;;5113997;28;19907;-69
2022/09/16 02:18:17;;;;;;;;;;;16.70;93.80;;;;;;5095680;28;19998;-70
2022/09/16 02:20:45;;;;;;;;;;;16.70;93.70;;;;;;5113635;28;19908;-69
2022/09/16 02:23:16;;;;;;;;;;;16.70;93.70;;;;;;5117501;27;19919;-70
2022/09/16 02:25:44;;;;;;;;;;;16.70;93.70;;;;;;5134243;27;19907;-69
2022/09/16 02:28:12;;;;;;;;;;;16.70;93.70;;;;;;5134257;27;19915;-69
2022/09/16 02:30:39;;;;;;;;;;;16.60;93.70;;;;;;5134250;27;20362;-69
2022/09/16 02:33:06;;;;;;;;;;;16.60;93.60;;;;;;5133858;27;19922;-69
2022/09/16 02:35:33;;;;;;;;;;;16.60;93.60;;;;;;5134142;27;19952;-70
2022/09/16 02:38:01;;;;;;;;;;;16.60;93.60;;;;;;5134106;27;20058;-69
2022/09/16 02:40:40;;;;;;;;;;;16.50;93.60;;;;;;5133964;27;19903;-69
2022/09/16 02:43:06;;;;;;;;;;;16.50;93.60;;;;;;5133997;27;20021;-69
2022/09/16 02:46:10;;;;;;;;;;;16.40;93.50;;;;;;5133903;27;19997;-70
2022/09/16 02:48:35;;;;;;;;;;;16.40;93.90;;;;;;5030579;28;19905;-69
2022/09/16 02:51:05;;;;;;;;;;;16.40;93.50;;;;;;5029992;28;19950;-69
2022/09/16 02:53:49;;;;;;;;;;;16.40;93.50;;;;;;5081174;27;19915;-69
2022/09/16 02:56:23;;;;;;;;;;;16.40;93.50;;;;;;5113226;28;19923;-70
2022/09/16 02:58:48;;;;;;;;;;;16.30;93.50;;;;;;5112887;28;19907;-69
2022/09/16 03:01:15;;;;;;;;;;;16.30;93.50;;;;;;5113190;28;19926;-69
2022/09/16 03:03:40;;;;;;;;;;;16.30;93.60;;;;;;5113334;28;19957;-69
2022/09/16 03:06:14;;;;;;;;;;;16.30;93.60;;;;;;5094869;28;19907;-69
2022/09/16 03:08:40;;;;;;;;;;;16.20;93.50;;;;;;5112980;28;19903;-69
2022/09/16 03:11:21;;;;;;;;;;;16.20;93.50;;;;;;5094704;28;20298;-69
2022/09/16 03:13:47;;;;;;;;;;;16.20;93.50;;;;;;5094644;28;20034;-69
2022/09/16 03:16:42;;;;;;;;;;;16.20;93.50;;;;;;5112951;28;20032;-69
2022/09/16 03:19:17;;;;;;;;;;;16.20;93.50;;;;;;5022638;28;19956;-69
2022/09/16 03:21:52;;;;;;;;;;;16.10;93.40;;;;;;5112667;28;20014;-69
2022/09/16 03:24:36;;;;;;;;;;;16.00;93.40;;;;;;5112860;28;20355;-69
2022/09/16 03:27:06;;;;;;;;;;;16.10;93.40;;;;;;5112814;28;19908;-69
2022/09/16 03:29:32;;;;;;;;;;;16.00;93.40;;;;;;5112806;28;19949;-69
2022/09/16 03:32:04;;;;;;;;;;;16.00;93.40;;;;;;5112518;28;19958;-69
2022/09/16 03:34:39;;;;;;;;;;;16.00;93.40;;;;;;5112767;28;19911;-69
2022/09/16 03:37:10;;;;;;;;;;;15.90;93.40;;;;;;5112652;28;20373;-70
2022/09/16 03:39:37;;;;;;;;;;;16.00;93.50;;;;;;5112877;28;19904;-69
2022/09/16 03:42:04;;;;;;;;;;;16.00;93.50;;;;;;5112555;28;19968;-69
2022/09/16 03:44:30;;;;;;;;;;;16.00;93.50;;;;;;5112614;28;19911;-69
2022/09/16 03:46:56;;;;;;;;;;;16.00;93.60;;;;;;5112846;28;19956;-69
2022/09/16 03:49:22;;;;;;;;;;;16.00;93.70;;;;;;5112584;28;19908;-69
2022/09/16 03:51:47;;;;;;;;;;;16.00;93.70;;;;;;5112350;28;19912;-69
2022/09/16 03:54:13;;;;;;;;;;;16.10;93.80;;;;;;5112403;28;19914;-69
2022/09/16 03:56:38;;;;;;;;;;;16.10;93.80;;;;;;5112570;28;19915;-69
2022/09/16 03:59:04;;;;;;;;;;;16.10;93.80;;;;;;5094223;28;19986;-69
2022/09/16 04:01:29;;;;;;;;;;;16.20;93.90;;;;;;5094253;28;20378;-69
2022/09/16 04:03:55;;;;;;;;;;;16.20;93.90;;;;;;5112411;28;19952;-69
2022/09/16 04:06:21;;;;;;;;;;;16.20;94.20;;;;;;5112328;28;19904;-70
2022/09/16 04:08:49;;;;;;;;;;;16.30;93.90;;;;;;5112487;28;19904;-70
2022/09/16 04:11:15;;;;;;;;;;;16.30;93.90;;;;;;5118406;27;20045;-70
2022/09/16 04:13:40;;;;;;;;;;;16.30;93.80;;;;;;5136810;27;20010;-70
2022/09/16 04:16:06;;;;;;;;;;;16.40;93.80;;;;;;5136815;27;19903;-70
2022/09/16 04:18:33;;;;;;;;;;;16.40;93.80;;;;;;5136786;27;19910;-70
2022/09/16 04:20:59;;;;;;;;;;;16.40;93.90;;;;;;5132600;27;19931;-70
2022/09/16 04:23:25;;;;;;;;;;;16.50;93.80;;;;;;5116063;28;20011;-70
2022/09/16 04:25:58;;;;;;;;;;;16.50;93.80;;;;;;5097936;28;19990;-70
2022/09/16 04:28:23;;;;;;;;;;;16.40;93.70;;;;;;5116032;28;19903;-70
2022/09/16 04:30:49;;;;;;;;;;;16.50;93.70;;;;;;5115886;28;20372;-70
2022/09/16 04:33:15;;;;;;;;;;;16.50;93.70;;;;;;5115657;28;19965;-70
2022/09/16 04:35:40;;;;;;;;;;;16.40;93.60;;;;;;5115767;28;20370;-70
2022/09/16 04:38:06;;;;;;;;;;;16.40;93.60;;;;;;5115897;28;19904;-70
2022/09/16 04:40:32;;;;;;;;;;;16.50;93.60;;;;;;5115735;28;19904;-70
2022/09/16 04:42:57;;;;;;;;;;;16.40;93.60;;;;;;5115676;28;19904;-70
2022/09/16 04:45:23;;;;;;;;;;;16.40;93.60;;;;;;5115643;28;20483;-70
2022/09/16 04:47:54;;;;;;;;;;;16.40;93.60;;;;;;5115756;28;20369;-70
2022/09/16 04:50:20;;;;;;;;;;;16.50;93.60;;;;;;5097307;28;19942;-70
2022/09/16 04:52:45;;;;;;;;;;;16.50;93.70;;;;;;5115356;27;20384;-70
2022/09/16 04:55:11;;;;;;;;;;;16.50;93.70;;;;;;5115468;28;20382;-70
2022/09/16 04:57:37;;;;;;;;;;;16.50;93.70;;;;;;5115485;28;19998;-70
2022/09/16 05:00:02;;;;;;;;;;;16.50;93.70;;;;;;5115404;28;19904;-70
2022/09/16 05:02:29;;;;;;;;;;;16.50;93.70;;;;;;5115484;28;19904;-69
2022/09/16 05:04:54;;;;;;;;;;;16.50;93.70;;;;;;5115477;28;19904;-69
2022/09/16 05:07:20;;;;;;;;;;;16.50;93.70;;;;;;5115248;28;20278;-70
2022/09/16 05:09:45;;;;;;;;;;;16.60;93.70;;;;;;5115334;28;19903;-70
2022/09/16 05:12:11;;;;;;;;;;;16.50;93.60;;;;;;5115050;28;19911;-70
2022/09/16 05:14:37;;;;;;;;;;;16.50;93.60;;;;;;5115110;28;20390;-70
2022/09/16 05:17:02;;;;;;;;;;;16.50;93.50;;;;;;5114889;28;19908;-70
2022/09/16 05:19:28;;;;;;;;;;;16.50;93.50;;;;;;5114894;28;19908;-70
2022/09/16 05:21:54;;;;;;;;;;;16.50;93.50;;;;;;5114436;27;19907;-70
2022/09/16 05:24:19;;;;;;;;;;;16.50;93.60;;;;;;5114761;28;19908;-70
2022/09/16 05:26:45;;;;;;;;;;;16.50;93.70;;;;;;5114689;28;19904;-70
2022/09/16 05:29:12;;;;;;;;;;;16.50;93.70;;;;;;5114677;28;19904;-70
2022/09/16 05:31:38;;;;;;;;;;;16.60;93.80;;;;;;5127670;27;19998;-70
2022/09/16 05:34:12;;;;;;;;;;;16.60;93.80;;;;;;5116495;27;20285;-70
2022/09/16 05:36:38;;;;;;;;;;;16.60;93.70;;;;;;5133298;27;19930;-70
2022/09/16 05:39:03;;;;;;;;;;;16.60;93.80;;;;;;5116890;27;19908;-70
2022/09/16 05:41:29;;;;;;;;;;;16.60;93.80;;;;;;5132610;27;19922;-70
2022/09/16 05:43:57;;;;;;;;;;;16.70;93.90;;;;;;5135978;27;20316;-70
2022/09/16 05:46:23;;;;;;;;;;;16.70;93.90;;;;;;5135879;27;19903;-70
2022/09/16 05:48:48;;;;;;;;;;;16.70;94.00;;;;;;5132903;27;20557;-70
2022/09/16 05:51:15;;;;;;;;;;;16.80;94.00;;;;;;5125149;27;19914;-70
2022/09/16 05:53:41;;;;;;;;;;;16.90;94.10;;;;;;5124352;27;20018;-70
2022/09/16 05:56:09;;;;;;;;;;;16.90;94.00;;;;;;5122805;27;20478;-70
2022/09/16 05:58:35;;;;;;;;;;;16.90;93.90;;;;;;5122804;27;20374;-70
2022/09/16 06:01:05;;;;;;;;;;;17.00;94.00;;;;;;5124086;27;19907;-70
2022/09/16 06:03:31;;;;;;;;;;;17.10;94.00;;;;;;5135553;27;19987;-70
2022/09/16 06:06:04;;;;;;;;;;;17.10;94.00;;;;;;5134763;27;19909;-71
2022/09/16 06:08:30;;;;;;;;;;;17.20;94.00;;;;;;5135576;27;19907;-70
2022/09/16 06:10:56;;;;;;;;;;;17.20;94.00;;;;;;5130643;27;20169;-71
2022/09/16 06:13:21;;;;;;;;;;;17.30;94.00;;;;;;5135353;27;19922;-71
2022/09/16 06:15:48;;;;;;;;;;;17.30;93.90;;;;;;5116976;27;19942;-70
2022/09/16 06:18:15;;;;;;;;;;;17.30;93.90;;;;;;5135326;27;20316;-70
2022/09/16 06:20:40;;;;;;;;;;;17.40;93.90;;;;;;5129867;27;19913;-70
2022/09/16 06:23:06;;;;;;;;;;;17.30;93.80;;;;;;5129130;27;19903;-71
2022/09/16 06:25:33;;;;;;;;;;;17.40;93.80;;;;;;5135084;27;19943;-70
2022/09/16 06:27:58;;;;;;;;;;;17.50;93.90;;;;;;5134133;27;19946;-70
2022/09/16 06:30:24;;;;;;;;;;;17.50;94.00;;;;;;5135028;27;20388;-70
2022/09/16 06:32:50;;;;;;;;;;;17.60;94.10;;;;;;5134676;27;20313;-70
2022/09/16 06:35:16;;;;;;;;;;;17.70;94.20;;;;;;5116122;27;20282;-70
2022/09/16 06:37:41;;;;;;;;;;;17.70;94.30;;;;;;5134807;27;19910;-70
2022/09/16 06:40:07;;;;;;;;;;;17.80;94.40;;;;;;5116526;27;19903;-71
2022/09/16 06:42:33;;;;;;;;;;;17.90;94.60;;;;;;5134858;27;20036;-70
2022/09/16 06:44:58;;;;;;;;;;;18.00;94.60;;;;;;5134727;27;19914;-70
2022/09/16 06:47:24;;;;;;;;;;;18.10;94.80;;;;;;5134787;27;20385;-70
2022/09/16 06:49:50;;;;;;;;;;;18.20;94.80;;;;;;5119621;27;19903;-70
2022/09/16 06:52:15;;;;;;;;;;;18.30;94.90;;;;;;5095823;28;19911;-70
2022/09/16 06:54:41;;;;;;;;;;;18.30;94.80;;;;;;5114110;28;20259;-70
2022/09/16 06:57:07;;;;;;;;;;;18.40;94.60;;;;;;5114117;28;19908;-70
2022/09/16 06:59:32;;;;;;;;;;;18.40;94.60;;;;;;5114054;28;20393;-70
2022/09/16 07:01:58;;;;;;;;;;;18.50;94.70;;;;;;5113982;28;19969;-70
2022/09/16 07:04:23;;;;;;;;;;;18.70;94.90;;;;;;5113903;28;19965;-70
2022/09/16 07:06:50;;;;;;;;;;;18.80;94.90;;;;;;5114014;28;19907;-70
2022/09/16 07:09:16;;;;;;;;;;;18.90;95.00;;;;;;5113929;28;19903;-70
2022/09/16 07:11:41;;;;;;;;;;;19.00;95.10;;;;;;5113820;28;19907;-70
2022/09/16 07:14:08;;;;;;;;;;;19.10;95.00;;;;;;5113968;28;19965;-71
2022/09/16 07:16:33;;;;;;;;;;;19.20;94.80;;;;;;5113913;28;20496;-70
2022/09/16 07:18:59;;;;;;;;;;;19.20;94.60;;;;;;5113735;28;19953;-70
2022/09/16 07:21:28;;;;;;;;;;;19.30;94.40;;;;;;5113744;28;20373;-70
2022/09/16 07:23:56;;;;;;;;;;;19.30;94.20;;;;;;5113716;28;19904;-70
2022/09/16 07:26:25;;;;;;;;;;;19.20;93.90;;;;;;5113763;28;19994;-71
2022/09/16 07:28:51;;;;;;;;;;;19.20;93.80;;;;;;5113791;28;19903;-71
2022/09/16 07:31:18;;;;;;;;;;;19.20;93.70;;;;;;5113521;28;19904;-71
2022/09/16 07:33:46;;;;;;;;;;;19.20;93.60;;;;;;5113447;28;19916;-71
2022/09/16 07:36:13;;;;;;;;;;;19.20;93.70;;;;;;5113653;28;19966;-70
2022/09/16 07:38:39;;;;;;;;;;;19.20;93.80;;;;;;5095315;28;19908;-70
2022/09/16 07:41:06;;;;;;;;;;;19.20;93.90;;;;;;5113938;28;19904;-70
2022/09/16 07:43:31;;;;;;;;;;;19.30;94.00;;;;;;5113528;28;20027;-70
2022/09/16 07:45:58;;;;;;;;;;;19.20;93.90;;;;;;5114778;28;19958;-71
2022/09/16 07:48:24;;;;;;;;;;;19.30;94.00;;;;;;5102657;28;19907;-71
2022/09/16 07:51:00;;;;;;;;;;;19.30;94.00;;;;;;5117532;28;19907;-71
2022/09/16 07:53:26;;;;;;;;;;;19.30;94.20;;;;;;5117559;28;19908;-70
2022/09/16 07:55:52;;;;;;;;;;;19.30;93.90;;;;;;5117631;28;19910;-71
2022/09/16 07:58:18;;;;;;;;;;;19.40;94.00;;;;;;5117558;28;19911;-70
2022/09/16 08:00:44;;;;;;;;;;;19.40;94.30;;;;;;5117508;28;19953;-70
2022/09/16 08:03:09;;;;;;;;;;;19.40;93.90;;;;;;5117370;28;19907;-71
2022/09/16 08:05:35;;;;;;;;;;;19.40;93.80;;;;;;5099098;28;20397;-71
2022/09/16 08:08:01;;;;;;;;;;;19.40;93.70;;;;;;5117335;28;19994;-71
2022/09/16 08:10:27;;;;;;;;;;;19.40;93.70;;;;;;5117351;28;19956;-70
2022/09/16 08:12:52;;;;;;;;;;;19.30;93.50;;;;;;5117186;28;19907;-71
2022/09/16 08:15:18;;;;;;;;;;;19.30;93.50;;;;;;5117228;28;19903;-70
2022/09/16 08:17:44;;;;;;;;;;;19.20;93.40;;;;;;5117209;28;19903;-72
2022/09/16 08:20:09;;;;;;;;;;;19.20;93.50;;;;;;5098907;28;19966;-70
2022/09/16 08:22:35;;;;;;;;;;;19.20;93.50;;;;;;5116921;28;19908;-70
2022/09/16 08:25:00;;;;;;;;;;;19.20;93.60;;;;;;5098809;28;19904;-70
2022/09/16 08:27:26;;;;;;;;;;;19.20;94.00;;;;;;5116946;28;19903;-71
2022/09/16 08:29:52;;;;;;;;;;;19.40;94.50;;;;;;5116926;28;20022;-71
2022/09/16 08:32:18;;;;;;;;;;;19.50;94.90;;;;;;5116701;28;19979;-70
2022/09/16 08:34:43;;;;;;;;;;;19.70;95.20;;;;;;5116873;28;19945;-71
2022/09/16 08:37:09;;;;;;;;;;;19.80;95.30;;;;;;5116729;28;19907;-71
2022/09/16 08:39:35;;;;;;;;;;;20.00;95.40;;;;;;5116737;28;19955;-70
2022/09/16 08:42:00;;;;;;;;;;;20.10;95.10;;;;;;5116713;28;19904;-70
2022/09/16 08:44:26;;;;;;;;;;;20.10;94.90;;;;;;5116573;28;20002;-71
2022/09/16 08:46:59;;;;;;;;;;;20.20;94.60;;;;;;5116414;28;19958;-71
2022/09/16 08:49:25;;;;;;;;;;;20.20;94.30;;;;;;5116541;28;19918;-70
2022/09/16 08:51:52;;;;;;;;;;;20.30;94.60;;;;;;5116323;27;19911;-70
2022/09/16 08:54:25;;;;;;;;;;;20.30;94.30;;;;;;5116343;28;20393;-71
2022/09/16 08:56:53;;;;;;;;;;;20.30;94.20;;;;;;5115904;28;19953;-71
2022/09/16 08:59:20;;;;;;;;;;;20.30;94.10;;;;;;5116369;28;19904;-71
2022/09/16 09:01:48;;;;;;;;;;;20.30;94.10;;;;;;5098067;28;19907;-70
2022/09/16 09:04:14;;;;;;;;;;;20.40;94.10;;;;;;5097914;28;19910;-70
2022/09/16 09:06:52;;;;;;;;;;;20.40;94.10;;;;;;5116291;28;19907;-70
2022/09/16 09:09:18;;;;;;;;;;;20.40;94.10;;;;;;5097889;28;19918;-70
2022/09/16 09:11:47;;;;;;;;;;;20.40;94.10;;;;;;5116075;28;19907;-70
2022/09/16 09:14:36;;;;;;;;;;;20.50;94.40;;;;;;5116034;28;19904;-70
2022/09/16 09:17:13;;;;;;;;;;;20.60;94.60;;;;;;5115922;28;19953;-71
2022/09/16 09:19:39;;;;;;;;;;;20.70;94.40;;;;;;5097767;28;19912;-70
2022/09/16 09:22:15;;;;;;;;;;;20.70;94.30;;;;;;5115823;27;20044;-70
2022/09/16 09:24:41;;;;;;;;;;;20.80;94.30;;;;;;5115720;28;19954;-70
2022/09/16 09:27:13;;;;;;;;;;;20.90;94.30;;;;;;5115680;28;19957;-71
2022/09/16 09:29:38;;;;;;;;;;;20.90;94.30;;;;;;5115827;28;20465;-70
2022/09/16 09:32:19;;;;;;;;;;;21.00;94.40;;;;;;5115681;28;20022;-70
2022/09/16 09:34:54;;;;;;;;;;;21.00;94.30;;;;;;5107729;27;19912;-71
2022/09/16 09:37:36;;;;;;;;;;;21.20;94.40;;;;;;5116753;27;19907;-70
2022/09/16 09:40:21;;;;;;;;;;;21.20;94.40;;;;;;5117696;27;19997;-70
2022/09/16 09:43:00;;;;;;;;;;;21.20;94.30;;;;;;5136077;27;19904;-70
2022/09/16 09:45:34;;;;;;;;;;;21.40;94.50;;;;;;5121920;27;19953;-71
2022/09/16 09:48:03;;;;;;;;;;;21.50;94.70;;;;;;5115468;28;19904;-71
2022/09/16 09:50:43;;;;;;;;;;;21.70;95.00;;;;;;5115346;28;20270;-71
2022/09/16 09:53:31;;;;;;;;;;;21.70;94.90;;;;;;5115147;27;19911;-70
2022/09/16 09:56:15;;;;;;;;;;;21.80;94.80;;;;;;5115250;28;19903;-71
2022/09/16 09:59:04;;;;;;;;;;;21.80;94.00;;;;;;5115225;28;20378;-70
2022/09/16 10:01:29;;;;;;;;;;;21.80;93.80;;;;;;5101473;28;20286;-68
2022/09/16 10:03:56;;;;;;;;;;;21.90;94.00;;;;;;5097145;28;19968;-68
2022/09/16 10:06:25;;;;;;;;;;;22.00;94.10;;;;;;5114972;28;19903;-70
2022/09/16 10:08:53;;;;;;;;;;;22.00;94.00;;;;;;5114117;28;19904;-70
2022/09/16 10:11:30;;;;;;;;;;;22.10;93.90;;;;;;5115117;28;19912;-70
2022/09/16 10:13:57;;;;;;;;;;;22.10;94.10;;;;;;5114855;28;19926;-70
2022/09/16 10:16:44;;;;;;;;;;;22.20;94.10;;;;;;5114827;28;20336;-71
2022/09/16 10:19:20;;;;;;;;;;;22.30;94.10;;;;;;5114644;28;20375;-70
2022/09/16 10:21:49;;;;;;;;;;;22.30;94.00;;;;;;5114901;27;19914;-71
2022/09/16 10:24:27;;;;;;;;;;;22.40;93.90;;;;;;5114568;28;19903;-70
2022/09/16 10:26:53;;;;;;;;;;;22.50;93.80;;;;;;5114586;28;20002;-70
2022/09/16 10:29:19;;;;;;;;;;;22.50;93.70;;;;;;5114368;28;19943;-70
2022/09/16 10:31:45;;;;;;;;;;;22.60;93.80;;;;;;5114178;28;19907;-71
2022/09/16 10:34:25;;;;;;;;;;;22.70;93.80;;;;;;5114114;28;19907;-71
2022/09/16 10:36:58;;;;;;;;;;;22.60;93.10;;;;;;5114210;28;19925;-70
2022/09/16 10:39:25;;;;;;;;;;;22.60;92.70;;;;;;5114241;28;19910;-70
2022/09/16 10:41:51;;;;;;;;;;;22.60;92.40;;;;;;5114313;28;19986;-71
2022/09/16 10:44:25;;;;;;;;;;;22.50;92.20;;;;;;5113779;28;19947;-70
2022/09/16 10:47:01;;;;;;;;;;;22.50;92.10;;;;;;5114001;28;19904;-70
2022/09/16 10:49:37;;;;;;;;;;;22.50;92.10;;;;;;5113985;28;19939;-70
2022/09/16 10:52:32;;;;;;;;;;;22.40;91.70;;;;;;5113876;28;19914;-70
2022/09/16 10:55:09;;;;;;;;;;;22.40;91.60;;;;;;5092087;28;19908;-70
2022/09/16 10:57:39;;;;;;;;;;;22.30;91.50;;;;;;5114372;28;19947;-70
2022/09/16 11:00:13;;;;;;;;;;;22.30;91.50;;;;;;5114004;28;19910;-70
2022/09/16 11:02:59;;;;;;;;;;;22.20;91.50;;;;;;5114141;28;19961;-70
2022/09/16 11:05:28;;;;;;;;;;;22.20;91.70;;;;;;5113073;28;20419;-70
2022/09/16 11:08:12;;;;;;;;;;;22.20;91.90;;;;;;5113928;28;19986;-70
2022/09/16 11:10:42;;;;;;;;;;;22.20;92.10;;;;;;5113794;28;20366;-70
2022/09/16 11:13:18;;;;;;;;;;;22.30;92.50;;;;;;5113337;28;19907;-70
2022/09/16 11:15:47;;;;;;;;;;;22.30;92.80;;;;;;5114535;28;19926;-69
2022/09/16 11:18:23;;;;;;;;;;;22.50;92.90;;;;;;5113643;28;19904;-69
2022/09/16 11:21:10;;;;;;;;;;;22.50;92.80;;;;;;5113652;28;19914;-69
2022/09/16 11:23:41;;;;;;;;;;;22.60;92.40;;;;;;5095605;28;19915;-69
2022/09/16 11:26:14;;;;;;;;;;;22.70;92.30;;;;;;5095463;28;19938;-69
2022/09/16 11:29:04;;;;;;;;;;;22.80;92.00;;;;;;5120989;28;19908;-69
2022/09/16 11:31:35;;;;;;;;;;;22.80;91.60;;;;;;5133877;28;19969;-69
2022/09/16 11:34:01;;;;;;;;;;;22.90;91.50;;;;;;5115532;28;19967;-69
2022/09/16 11:36:29;;;;;;;;;;;22.80;91.20;;;;;;5134253;28;20371;-69
2022/09/16 11:38:54;;;;;;;;;;;22.90;91.50;;;;;;5134227;28;20013;-69
2022/09/16 11:41:20;;;;;;;;;;;22.90;91.10;;;;;;5131039;28;19960;-69
2022/09/16 11:44:04;;;;;;;;;;;22.90;91.10;;;;;;5113548;28;19910;-69
2022/09/16 11:46:32;;;;;;;;;;;23.00;91.40;;;;;;5113498;28;19904;-69
2022/09/16 11:48:58;;;;;;;;;;;23.00;91.10;;;;;;5116885;28;19911;-69
2022/09/16 11:51:24;;;;;;;;;;;23.00;90.50;;;;;;5113344;28;19903;-69
2022/09/16 11:53:53;;;;;;;;;;;23.00;90.10;;;;;;5095297;28;19994;-69
2022/09/16 11:56:21;;;;;;;;;;;23.00;90.20;;;;;;5113417;28;19903;-69
2022/09/16 11:59:07;;;;;;;;;;;23.00;90.20;;;;;;5113487;28;19908;-69
2022/09/16 12:01:44;;;;;;;;;;;23.10;90.20;;;;;;5095633;28;20370;-68
2022/09/16 12:04:13;;;;;;;;;;;23.10;90.00;;;;;;5113329;28;20367;-68
2022/09/16 12:06:43;;;;;;;;;;;23.20;90.30;;;;;;5113383;28;19907;-68
2022/09/16 12:09:12;;;;;;;;;;;23.20;90.00;;;;;;5113821;28;20305;-68
2022/09/16 12:11:49;;;;;;;;;;;23.30;90.10;;;;;;5113129;28;19908;-68
2022/09/16 12:14:21;;;;;;;;;;;23.40;90.20;;;;;;5113268;28;19911;-68
2022/09/16 12:16:49;;;;;;;;;;;23.50;90.20;;;;;;5113375;28;19953;-68
2022/09/16 12:19:18;;;;;;;;;;;23.50;90.00;;;;;;5126230;28;19990;-67
2022/09/16 12:22:04;;;;;;;;;;;23.50;88.60;;;;;;5133368;28;19998;-68
2022/09/16 12:24:36;;;;;;;;;;;23.60;88.60;;;;;;5133001;28;19903;-68
2022/09/16 12:27:05;;;;;;;;;;;23.60;88.60;;;;;;5133552;28;19910;-68
2022/09/16 12:29:37;;;;;;;;;;;23.70;89.50;;;;;;5133662;28;20322;-68
2022/09/16 12:32:11;;;;;;;;;;;23.80;88.40;;;;;;5134652;27;19952;-68
2022/09/16 12:34:40;;;;;;;;;;;23.90;89.00;;;;;;5137344;27;19911;-68
2022/09/16 12:37:12;;;;;;;;;;;23.90;88.80;;;;;;5137100;27;19903;-68
2022/09/16 12:39:37;;;;;;;;;;;24.00;88.70;;;;;;5136664;27;19955;-68
2022/09/16 12:42:22;;;;;;;;;;;24.00;87.80;;;;;;5098415;28;19946;-68
2022/09/16 12:44:59;;;;;;;;;;;24.00;87.70;;;;;;5116607;28;19904;-68
2022/09/16 12:47:43;;;;;;;;;;;24.00;87.30;;;;;;5098331;28;19903;-68
2022/09/16 12:50:09;;;;;;;;;;;23.90;87.50;;;;;;5116487;27;19995;-68
2022/09/16 12:52:43;;;;;;;;;;;23.90;86.80;;;;;;5116479;28;20010;-68
2022/09/16 12:55:22;;;;;;;;;;;23.80;85.70;;;;;;5116535;28;19957;-68
2022/09/16 12:57:50;;;;;;;;;;;23.70;85.90;;;;;;5116438;28;19997;-68
2022/09/16 13:00:20;;;;;;;;;;;23.50;84.10;;;;;;5116343;28;19957;-68
2022/09/16 13:02:57;;;;;;;;;;;23.40;84.30;;;;;;5116289;28;19910;-68
2022/09/16 13:05:25;;;;;;;;;;;23.20;83.90;;;;;;5116316;28;19903;-68
2022/09/16 13:07:53;;;;;;;;;;;23.10;83.80;;;;;;5116278;28;20211;-68
2022/09/16 13:10:20;;;;;;;;;;;22.90;83.20;;;;;;5116221;28;19907;-68
2022/09/16 13:12:50;;;;;;;;;;;22.80;82.80;;;;;;5116155;28;20269;-68
2022/09/16 13:15:23;;;;;;;;;;;22.60;82.00;;;;;;5116161;28;19918;-68
2022/09/16 13:17:52;;;;;;;;;;;22.50;82.70;;;;;;5116859;27;19907;-68
2022/09/16 13:20:32;;;;;;;;;;;22.40;83.00;;;;;;5116134;27;20360;-68
2022/09/16 13:23:31;;;;;;;;;;;22.40;83.60;;;;;;5115840;28;19904;-70
2022/09/16 13:25:56;;;;;;;;;;;22.30;83.40;;;;;;5082325;28;20325;-68
2022/09/16 13:28:31;;;;;;;;;;;22.30;84.20;;;;;;5115793;28;19904;-68
2022/09/16 13:31:08;;;;;;;;;;;22.30;84.50;;;;;;5116149;28;19943;-68
2022/09/16 13:33:34;;;;;;;;;;;22.30;84.30;;;;;;5115166;28;20050;-69
2022/09/16 13:36:10;;;;;;;;;;;22.20;83.60;;;;;;5115552;28;19919;-68
2022/09/16 13:38:41;;;;;;;;;;;22.20;83.80;;;;;;5115613;28;19933;-68
2022/09/16 13:41:09;;;;;;;;;;;22.10;83.60;;;;;;5115564;28;20400;-68
2022/09/16 13:43:40;;;;;;;;;;;22.00;83.40;;;;;;5115485;28;19904;-68
2022/09/16 13:46:08;;;;;;;;;;;22.00;83.50;;;;;;5097097;28;19911;-68
2022/09/16 13:48:45;;;;;;;;;;;21.90;83.40;;;;;;5115198;28;19911;-68
2022/09/16 13:51:18;;;;;;;;;;;21.80;83.60;;;;;;5115385;28;20275;-68
2022/09/16 13:53:46;;;;;;;;;;;21.80;83.50;;;;;;5115364;28;19907;-68
2022/09/16 13:56:11;;;;;;;;;;;21.70;83.10;;;;;;5115296;28;20266;-68
2022/09/16 13:58:51;;;;;;;;;;;21.70;83.10;;;;;;5115233;28;19904;-68
2022/09/16 14:01:37;;;;;;;;;;;21.70;83.50;;;;;;5115118;28;19907;-68
2022/09/16 14:04:03;;;;;;;;;;;21.70;84.10;;;;;;5114116;28;19904;-68
2022/09/16 14:06:29;;;;;;;;;;;21.70;83.90;;;;;;5114922;28;19961;-68
2022/09/16 14:08:58;;;;;;;;;;;21.60;83.40;;;;;;5114984;28;19904;-68
2022/09/16 14:11:46;;;;;;;;;;;21.60;83.10;;;;;;5096558;28;19998;-68
2022/09/16 14:14:15;;;;;;;;;;;21.60;82.90;;;;;;5101074;28;19903;-69
2022/09/16 14:16:42;;;;;;;;;;;21.50;81.70;;;;;;5114640;28;19904;-68
2022/09/16 14:19:19;;;;;;;;;;;21.50;81.90;;;;;;5122845;27;19990;-69
2022/09/16 14:21:44;;;;;;;;;;;21.40;82.40;;;;;;5135316;27;19903;-67
2022/09/16 14:24:17;;;;;;;;;;;21.40;82.70;;;;;;5135212;27;19926;-69
2022/09/16 14:26:53;;;;;;;;;;;21.40;83.10;;;;;;5135087;27;19907;-69
2022/09/16 14:29:19;;;;;;;;;;;21.50;83.40;;;;;;5116581;27;20278;-69
2022/09/16 14:31:44;;;;;;;;;;;21.50;83.80;;;;;;5134850;27;20341;-70